Time;durP1;ratioP1;P1;durP2;ratioP2;P2;SDS_P1;SDS_P2;PMS_P1;PMS_P2;Temp;Humidity;BMP_temperature;BMP_pressure;BME280_temperature;BME280_humidity;BME280_pressure;Samples;Min_cycle;Max_cycle;Signal;HPM_P1;HPM_P2
2021/03/05 00:00:30;;;;;;;6.50;5.90;;;15.00;92.60;;;;;;5080480;28;20452;-39
2021/03/05 00:03:00;;;;;;;9.73;5.73;;;14.90;94.80;;;;;;5063946;28;20453;-42
2021/03/05 00:05:34;;;;;;;6.53;5.93;;;14.80;96.00;;;;;;5067143;28;20532;-47
2021/03/05 00:08:05;;;;;;;7.17;6.47;;;14.70;96.30;;;;;;5074098;28;20465;-49
2021/03/05 00:10:38;;;;;;;8.00;6.00;;;14.70;94.50;;;;;;5080326;28;20456;-46
2021/03/05 00:13:09;;;;;;;7.50;6.80;;;14.80;94.40;;;;;;5076419;28;20463;-46
2021/03/05 00:15:42;;;;;;;8.60;6.13;;;14.80;95.10;;;;;;5070921;28;20506;-48
2021/03/05 00:18:14;;;;;;;7.13;6.10;;;14.70;95.60;;;;;;5063783;28;20452;-48
2021/03/05 00:20:46;;;;;;;7.90;7.10;;;14.80;95.00;;;;;;5079631;28;20456;-47
2021/03/05 00:23:16;;;;;;;6.40;5.80;;;14.80;96.70;;;;;;5063322;28;20551;-45
2021/03/05 00:25:48;;;;;;;7.07;5.83;;;14.70;98.50;;;;;;5071947;28;20458;-44
2021/03/05 00:28:19;;;;;;;8.73;5.80;;;14.80;99.70;;;;;;5075106;28;20477;-45
2021/03/05 00:30:51;;;;;;;7.43;6.47;;;14.70;99.90;;;;;;5078559;28;20525;-48
2021/03/05 00:33:21;;;;;;;7.20;6.43;;;14.70;99.90;;;;;;5082746;28;20454;-46
2021/03/05 00:35:57;;;;;;;6.73;5.90;;;14.80;99.90;;;;;;5083601;28;20525;-47
2021/03/05 00:38:29;;;;;;;10.23;7.23;;;14.80;99.90;;;;;;5083152;28;20538;-43
2021/03/05 00:40:59;;;;;;;7.13;6.47;;;14.80;99.90;;;;;;5082124;28;20452;-47
2021/03/05 00:43:29;;;;;;;8.30;7.20;;;14.80;99.90;;;;;;5085825;28;20460;-50
2021/03/05 00:46:00;;;;;;;8.03;7.30;;;14.70;99.90;;;;;;5075200;28;20599;-47
2021/03/05 00:48:30;;;;;;;9.37;7.10;;;14.40;99.90;;;;;;5067478;28;20437;-48
2021/03/05 00:51:00;;;;;;;6.53;5.90;;;14.30;99.90;;;;;;5067372;28;20448;-45
2021/03/05 00:53:31;;;;;;;7.00;6.23;;;14.20;99.90;;;;;;5083809;28;20454;-47
2021/03/05 00:56:02;;;;;;;7.63;6.20;;;14.00;99.90;;;;;;5086909;28;20483;-48
2021/03/05 00:58:32;;;;;;;8.43;6.90;;;14.00;99.90;;;;;;5087625;28;20447;-45
2021/03/05 01:01:03;;;;;;;7.83;7.10;;;13.90;99.90;;;;;;5075842;28;20460;-45
2021/03/05 01:03:34;;;;;;;9.17;7.80;;;13.70;99.90;;;;;;5067810;28;20429;-47
2021/03/05 01:06:15;;;;;;;10.67;7.47;;;13.80;99.90;;;;;;5067409;28;20421;-47
2021/03/05 01:08:45;;;;;;;8.60;6.93;;;13.70;99.90;;;;;;5067398;28;20444;-42
2021/03/05 01:11:16;;;;;;;8.60;7.70;;;13.60;99.90;;;;;;5068032;28;20460;-46
2021/03/05 01:13:46;;;;;;;7.10;6.23;;;13.50;99.90;;;;;;5076918;28;20456;-49
2021/03/05 01:16:18;;;;;;;8.00;7.30;;;13.40;99.90;;;;;;5082812;28;20875;-43
2021/03/05 01:18:49;;;;;;;10.47;8.30;;;13.40;99.90;;;;;;5078789;28;20453;-46
2021/03/05 01:21:19;;;;;;;11.27;8.37;;;13.40;99.90;;;;;;5068941;28;20448;-44
2021/03/05 01:23:49;;;;;;;8.87;7.57;;;13.40;99.90;;;;;;5069308;28;20459;-46
2021/03/05 01:26:19;;;;;;;9.30;6.80;;;13.20;99.90;;;;;;5074261;28;20950;-47
2021/03/05 01:28:49;;;;;;;10.20;6.70;;;13.10;99.90;;;;;;5067096;28;20456;-45
2021/03/05 01:31:21;;;;;;;7.27;6.57;;;13.20;99.90;;;;;;5070175;28;20459;-44
2021/03/05 01:33:51;;;;;;;7.67;6.07;;;13.20;99.90;;;;;;5069540;28;20464;-39
2021/03/05 01:36:37;;;;;;;8.07;6.47;;;13.30;99.90;;;;;;5071790;28;20515;-39
2021/03/05 01:39:08;;;;;;;8.00;7.00;;;13.40;99.90;;;;;;5079089;28;20447;-39
2021/03/05 01:41:38;;;;;;;7.40;6.70;;;13.10;99.90;;;;;;5071739;28;20459;-42
2021/03/05 01:44:09;;;;;;;7.20;6.27;;;13.10;99.90;;;;;;5069824;28;20443;-39
2021/03/05 01:46:41;;;;;;;6.93;6.23;;;13.10;99.90;;;;;;5078011;28;20456;-40
2021/03/05 01:49:11;;;;;;;7.50;6.13;;;13.10;99.90;;;;;;5071838;28;20973;-39
2021/03/05 01:51:41;;;;;;;8.03;6.50;;;13.10;99.90;;;;;;5084104;28;20485;-42
2021/03/05 01:54:12;;;;;;;7.67;6.87;;;13.00;99.90;;;;;;5081682;28;20463;-39
2021/03/05 01:56:43;;;;;;;8.17;7.03;;;13.00;99.90;;;;;;5073867;28;20517;-39
2021/03/05 01:59:15;;;;;;;11.90;7.77;;;13.10;99.90;;;;;;5073669;28;20448;-39
2021/03/05 02:01:47;;;;;;;8.63;7.40;;;13.00;99.90;;;;;;5077094;28;20463;-39
2021/03/05 02:04:17;;;;;;;8.87;7.40;;;13.00;99.90;;;;;;5085148;28;20444;-39
2021/03/05 02:07:02;;;;;;;7.53;6.70;;;12.80;99.90;;;;;;5082624;28;20447;-39
2021/03/05 02:09:32;;;;;;;8.80;7.63;;;12.70;99.90;;;;;;5071273;28;20870;-39
2021/03/05 02:12:03;;;;;;;8.73;7.83;;;12.60;99.90;;;;;;5078513;28;22265;-41
2021/03/05 02:14:34;;;;;;;9.50;8.03;;;12.50;99.90;;;;;;5070667;28;20475;-39
2021/03/05 02:17:17;;;;;;;13.30;8.50;;;12.60;99.90;;;;;;5069885;28;20491;-39
2021/03/05 02:20:20;;;;;;;13.23;8.73;;;12.60;99.90;;;;;;5068457;28;20460;-39
2021/03/05 02:23:26;;;;;;;8.73;7.83;;;12.50;99.90;;;;;;5069797;28;20455;-39
2021/03/05 02:26:52;;;;;;;12.53;8.20;;;12.30;99.90;;;;;;5077054;28;21022;-39
2021/03/05 02:29:48;;;;;;;11.13;9.00;;;12.40;99.90;;;;;;5056850;28;20463;-39
2021/03/05 02:32:23;;;;;;;10.20;8.40;;;12.30;99.90;;;;;;5072221;28;20514;-42
2021/03/05 02:34:54;;;;;;;10.40;8.63;;;12.30;99.90;;;;;;5071077;28;20469;-39
2021/03/05 02:37:30;;;;;;;9.40;8.10;;;12.30;99.90;;;;;;5077241;28;20485;-39
2021/03/05 02:40:06;;;;;;;10.27;8.03;;;12.10;99.90;;;;;;5072077;28;20981;-41
2021/03/05 02:42:43;;;;;;;9.67;8.60;;;12.10;99.90;;;;;;5078190;28;20473;-41
2021/03/05 02:45:18;;;;;;;9.43;8.40;;;12.00;99.90;;;;;;5076711;28;20481;-41
2021/03/05 02:47:55;;;;;;;11.80;10.00;;;12.00;99.90;;;;;;5074085;28;20444;-39
2021/03/05 02:50:28;;;;;;;11.43;10.23;;;12.10;99.90;;;;;;5064379;28;20443;-41
2021/03/05 02:53:01;;;;;;;12.23;10.77;;;12.10;99.90;;;;;;5064317;28;20452;-39
2021/03/05 02:55:32;;;;;;;10.93;9.80;;;12.00;99.90;;;;;;5064021;28;20542;-40
2021/03/05 02:58:04;;;;;;;11.83;10.53;;;12.00;99.90;;;;;;5064729;28;20902;-39
2021/03/05 03:00:35;;;;;;;13.37;11.93;;;11.90;99.90;;;;;;5073703;28;20454;-40
2021/03/05 03:03:07;;;;;;;12.35;10.45;;;11.90;99.90;;;;;;5073254;28;20474;-39
2021/03/05 03:05:37;;;;;;;10.50;9.47;;;11.70;99.90;;;;;;5068802;28;20229;-39
2021/03/05 03:08:10;;;;;;;12.60;11.30;;;11.50;99.90;;;;;;5064466;28;20455;-39
2021/03/05 03:10:41;;;;;;;17.20;15.40;;;11.50;99.90;;;;;;5080173;28;20508;-40
2021/03/05 03:13:12;;;;;;;11.30;10.30;;;11.60;99.90;;;;;;5065310;28;20457;-40
2021/03/05 03:15:44;;;;;;;11.77;10.40;;;11.50;99.90;;;;;;5075588;28;21088;-41
2021/03/05 03:18:17;;;;;;;16.70;14.93;;;11.40;99.90;;;;;;5077228;28;20450;-39
2021/03/05 03:20:48;;;;;;;13.97;12.50;;;11.30;99.90;;;;;;5077767;28;20450;-39
2021/03/05 03:23:18;;;;;;;12.33;11.13;;;11.40;99.90;;;;;;5076176;28;20446;-41
2021/03/05 03:25:48;;;;;;;11.63;10.43;;;11.30;99.90;;;;;;5071922;28;20467;-38
2021/03/05 03:28:19;;;;;;;13.90;11.80;;;11.20;99.90;;;;;;5070518;28;20455;-39
2021/03/05 03:30:49;;;;;;;13.83;12.43;;;11.10;99.90;;;;;;5072078;28;20462;-40
2021/03/05 03:33:21;;;;;;;15.53;14.00;;;11.10;99.90;;;;;;5080650;28;20459;-43
2021/03/05 03:35:53;;;;;;;14.00;12.50;;;11.10;99.90;;;;;;5079593;28;20501;-42
2021/03/05 03:38:24;;;;;;;14.15;12.55;;;11.10;99.90;;;;;;5083510;28;20465;-45
2021/03/05 03:40:54;;;;;;;14.50;12.20;;;11.10;99.90;;;;;;5082834;28;20207;-42
2021/03/05 03:43:24;;;;;;;14.10;12.60;;;10.90;99.90;;;;;;5072693;28;20463;-42
2021/03/05 03:45:56;;;;;;;15.17;12.73;;;10.90;99.90;;;;;;5068465;28;20204;-41
2021/03/05 03:48:28;;;;;;;14.43;12.93;;;10.90;99.90;;;;;;5065071;28;20477;-41
2021/03/05 03:51:02;;;;;;;13.90;12.45;;;10.80;99.90;;;;;;5076889;28;20198;-41
2021/03/05 03:53:33;;;;;;;12.52;11.23;;;10.70;99.90;;;;;;5063521;28;20208;-42
2021/03/05 03:56:07;;;;;;;15.43;14.02;;;10.50;99.90;;;;;;5076687;28;20272;-41
2021/03/05 03:58:38;;;;;;;15.43;13.65;;;10.50;99.90;;;;;;5083367;28;20203;-42
2021/03/05 04:01:12;;;;;;;15.57;13.97;;;10.50;99.90;;;;;;5076354;28;20645;-40
2021/03/05 04:03:49;;;;;;;14.50;11.55;;;10.50;99.90;;;;;;5065803;28;20449;-39
2021/03/05 04:06:24;;;;;;;13.55;11.73;;;10.60;99.90;;;;;;5063124;28;20205;-39
2021/03/05 04:08:55;;;;;;;19.30;12.48;;;10.60;99.90;;;;;;5068512;28;20242;-40
2021/03/05 04:11:26;;;;;;;13.87;11.40;;;10.60;99.90;;;;;;5076724;28;20224;-40
2021/03/05 04:13:57;;;;;;;15.55;12.88;;;10.50;99.90;;;;;;5063053;28;20455;-40
2021/03/05 04:16:29;;;;;;;15.40;12.20;;;10.50;99.90;;;;;;5061390;28;20279;-40
2021/03/05 04:19:02;;;;;;;14.88;13.38;;;10.50;99.90;;;;;;5081803;28;20472;-40
2021/03/05 04:21:33;;;;;;;18.52;13.65;;;10.60;99.90;;;;;;5082353;28;20351;-40
2021/03/05 04:24:03;;;;;;;19.10;14.00;;;10.50;99.90;;;;;;5078703;28;20208;-40
2021/03/05 04:26:33;;;;;;;16.73;15.02;;;10.50;99.90;;;;;;5076788;28;20233;-46
2021/03/05 04:29:04;;;;;;;17.00;13.90;;;10.50;99.90;;;;;;5080481;28;20210;-47
2021/03/05 04:31:34;;;;;;;17.13;15.30;;;10.40;99.90;;;;;;5062750;28;20205;-48
2021/03/05 04:34:05;;;;;;;15.38;12.95;;;10.40;99.90;;;;;;5069857;28;20192;-43
2021/03/05 04:36:35;;;;;;;18.92;13.60;;;10.30;99.90;;;;;;5065632;28;20222;-45
2021/03/05 04:39:07;;;;;;;16.80;13.27;;;10.40;99.90;;;;;;5062646;28;20256;-45
2021/03/05 04:41:37;;;;;;;14.90;13.40;;;10.40;99.90;;;;;;5062659;28;20666;-47
2021/03/05 04:44:07;;;;;;;16.67;12.27;;;10.40;99.90;;;;;;5068465;28;20207;-42
2021/03/05 04:46:37;;;;;;;14.17;11.87;;;10.40;99.90;;;;;;5065903;28;20216;-45
2021/03/05 04:49:09;;;;;;;13.88;12.43;;;10.30;99.90;;;;;;5062517;28;20510;-45
2021/03/05 04:51:39;;;;;;;15.40;13.80;;;10.40;99.90;;;;;;5067915;28;20249;-42
2021/03/05 04:54:09;;;;;;;15.77;12.57;;;10.50;99.90;;;;;;5075775;28;20212;-42
2021/03/05 04:56:39;;;;;;;14.88;12.40;;;10.50;99.90;;;;;;5062326;28;20225;-43
2021/03/05 04:59:10;;;;;;;14.52;11.63;;;10.40;99.90;;;;;;5065512;28;20207;-41
2021/03/05 05:01:39;;;;;;;17.98;13.23;;;10.30;99.90;;;;;;5064808;28;20257;-42
2021/03/05 05:04:11;;;;;;;14.82;12.40;;;10.40;99.90;;;;;;5071091;28;20225;-41
2021/03/05 05:06:43;;;;;;;16.25;14.10;;;10.40;99.90;;;;;;5066097;28;20546;-42
2021/03/05 05:09:20;;;;;;;19.92;14.80;;;10.30;99.90;;;;;;5074044;28;20300;-42
2021/03/05 05:11:50;;;;;;;18.90;14.07;;;10.30;99.90;;;;;;5075480;28;20210;-46
2021/03/05 05:14:20;;;;;;;20.15;14.27;;;10.20;99.90;;;;;;5066878;28;20614;-41
2021/03/05 05:19:40;;;;;;;15.27;13.88;;;10.20;99.90;;;;;;5075912;28;20247;-42
2021/03/05 05:22:10;;;;;;;17.52;15.48;;;10.00;99.90;;;;;;5081677;28;20215;-43
2021/03/05 05:24:41;;;;;;;17.48;14.07;;;10.00;99.90;;;;;;5072861;28;20203;-45
2021/03/05 05:27:11;;;;;;;19.55;15.82;;;9.90;99.90;;;;;;5073552;28;20202;-42
2021/03/05 05:29:41;;;;;;;18.05;16.20;;;9.90;99.90;;;;;;5080219;28;20210;-43
2021/03/05 05:32:11;;;;;;;16.90;14.45;;;9.80;99.90;;;;;;5076595;28;20203;-44
2021/03/05 05:34:43;;;;;;;19.10;16.20;;;9.80;99.90;;;;;;5077745;28;20633;-44
2021/03/05 05:37:13;;;;;;;16.45;14.95;;;9.70;99.90;;;;;;5084380;28;20229;-42
2021/03/05 05:39:43;;;;;;;17.60;15.82;;;9.70;99.90;;;;;;5074932;28;20217;-42
2021/03/05 05:42:13;;;;;;;16.67;14.98;;;9.80;99.90;;;;;;5077801;28;20502;-42
2021/03/05 05:44:43;;;;;;;16.70;14.73;;;9.70;99.90;;;;;;5082132;28;20701;-46
2021/03/05 05:47:16;;;;;;;15.93;14.23;;;9.60;99.90;;;;;;5085647;28;20213;-42
2021/03/05 05:49:48;;;;;;;16.15;14.48;;;9.60;99.90;;;;;;5085754;28;20211;-41
2021/03/05 05:52:22;;;;;;;18.80;14.95;;;9.60;99.90;;;;;;5080341;28;20238;-42
2021/03/05 05:54:55;;;;;;;18.73;14.70;;;9.50;99.90;;;;;;5075264;28;20215;-42
2021/03/05 05:57:27;;;;;;;16.30;14.60;;;9.60;99.90;;;;;;5074659;28;20229;-42
2021/03/05 05:59:59;;;;;;;22.20;16.75;;;9.50;99.90;;;;;;5083958;28;20227;-42
2021/03/05 06:02:30;;;;;;;21.63;18.50;;;9.60;99.90;;;;;;5081003;28;20204;-42
2021/03/05 06:05:03;;;;;;;21.50;19.42;;;9.60;99.90;;;;;;5074660;28;20653;-43
2021/03/05 06:07:34;;;;;;;20.23;18.13;;;9.50;99.90;;;;;;5085037;28;20199;-41
2021/03/05 06:10:10;;;;;;;21.10;18.35;;;9.50;99.90;;;;;;5081422;28;20210;-46
2021/03/05 06:12:44;;;;;;;20.70;18.00;;;9.40;99.90;;;;;;5079070;28;20552;-41
2021/03/05 06:15:17;;;;;;;21.70;19.45;;;9.20;99.90;;;;;;5073851;28;20209;-43
2021/03/05 06:17:50;;;;;;;19.27;17.05;;;9.10;99.90;;;;;;5082338;28;20242;-43
2021/03/05 06:20:21;;;;;;;20.10;18.00;;;9.00;99.90;;;;;;5078993;28;20203;-41
2021/03/05 06:23:11;;;;;;;20.75;18.65;;;8.90;99.90;;;;;;5084295;28;20259;-41
2021/03/05 06:25:41;;;;;;;20.40;18.45;;;8.90;99.90;;;;;;5079175;28;20203;-42
2021/03/05 06:28:18;;;;;;;20.65;18.55;;;8.90;99.90;;;;;;5084683;28;20210;-42
2021/03/05 06:30:48;;;;;;;19.40;17.40;;;8.80;99.90;;;;;;5083635;28;20209;-43
2021/03/05 06:33:26;;;;;;;19.13;17.23;;;8.80;99.90;;;;;;5069733;28;20232;-41
2021/03/05 06:36:15;;;;;;;18.17;16.38;;;8.70;99.90;;;;;;5068833;28;20262;-41
2021/03/05 06:38:46;;;;;;;17.42;15.70;;;8.60;99.90;;;;;;5080638;28;20198;-42
2021/03/05 06:41:18;;;;;;;21.65;16.27;;;8.50;99.90;;;;;;5075213;28;20199;-43
2021/03/05 06:43:49;;;;;;;18.10;16.30;;;8.50;99.90;;;;;;5068882;28;20206;-40
2021/03/05 06:46:36;;;;;;;19.85;17.85;;;8.60;99.90;;;;;;5079014;28;20202;-42
2021/03/05 06:49:08;;;;;;;19.95;16.30;;;8.50;99.90;;;;;;5083867;28;20723;-42
2021/03/05 06:51:40;;;;;;;23.23;20.90;;;8.40;99.90;;;;;;5084050;28;20233;-42
2021/03/05 06:54:12;;;;;;;23.13;19.92;;;8.50;99.90;;;;;;5083296;28;20199;-41
2021/03/05 06:56:47;;;;;;;20.00;18.10;;;8.50;99.90;;;;;;5072657;28;20226;-42
2021/03/05 06:59:18;;;;;;;19.55;17.48;;;8.40;99.90;;;;;;5084103;28;20257;-40
2021/03/05 07:01:52;;;;;;;21.30;16.55;;;8.30;99.90;;;;;;5083167;28;20202;-43
2021/03/05 07:04:24;;;;;;;18.30;16.23;;;8.20;99.90;;;;;;5082285;28;20202;-40
2021/03/05 07:07:05;;;;;;;18.05;16.10;;;8.20;99.90;;;;;;5080907;28;20240;-41
2021/03/05 07:09:37;;;;;;;18.20;16.30;;;8.20;99.90;;;;;;5078904;28;20201;-39
2021/03/05 07:12:10;;;;;;;18.70;16.45;;;8.10;99.90;;;;;;5075491;28;20260;-40
2021/03/05 07:14:41;;;;;;;18.15;16.35;;;8.00;99.90;;;;;;5077267;28;20214;-40
2021/03/05 07:17:12;;;;;;;21.42;16.98;;;8.00;99.90;;;;;;5082714;28;20242;-41
2021/03/05 07:19:43;;;;;;;18.08;16.23;;;7.80;99.90;;;;;;5083784;28;20202;-40
2021/03/05 07:22:18;;;;;;;20.42;17.05;;;7.70;99.90;;;;;;5084057;28;20217;-41
2021/03/05 07:24:51;;;;;;;18.88;15.90;;;7.80;99.90;;;;;;5076829;28;20197;-40
2021/03/05 07:27:28;;;;;;;19.80;17.70;;;7.80;99.90;;;;;;5071791;28;20227;-43
2021/03/05 07:29:59;;;;;;;21.98;19.67;;;7.80;99.90;;;;;;5082308;28;20243;-41
2021/03/05 07:32:39;;;;;;;23.02;20.75;;;7.70;99.90;;;;;;5077116;28;20205;-40
2021/03/05 07:35:18;;;;;;;22.63;20.25;;;7.70;99.90;;;;;;5074982;28;20610;-40
2021/03/05 07:37:54;;;;;;;21.92;19.83;;;7.80;99.90;;;;;;5083374;28;20248;-40
2021/03/05 07:40:24;;;;;;;19.83;17.98;;;7.70;99.90;;;;;;5075369;28;20205;-40
2021/03/05 07:42:56;;;;;;;21.63;19.15;;;7.70;99.90;;;;;;5072109;28;20256;-40
2021/03/05 07:45:27;;;;;;;25.85;22.98;;;7.70;99.90;;;;;;5072966;28;20198;-41
2021/03/05 07:47:59;;;;;;;29.48;26.30;;;7.70;99.90;;;;;;5082418;28;20295;-40
2021/03/05 07:50:30;;;;;;;28.25;24.02;;;7.80;99.90;;;;;;5062995;28;20210;-40
2021/03/05 07:53:02;;;;;;;23.98;21.20;;;7.60;99.90;;;;;;5065620;28;20201;-42
2021/03/05 07:55:37;;;;;;;21.35;19.02;;;7.40;99.90;;;;;;5063513;28;20202;-41
2021/03/05 07:58:07;;;;;;;23.20;20.70;;;7.40;99.90;;;;;;5073531;28;20634;-42
2021/03/05 08:00:48;;;;;;;22.48;20.10;;;7.50;99.90;;;;;;5075439;28;20192;-40
2021/03/05 08:03:23;;;;;;;24.13;20.60;;;7.50;99.90;;;;;;5065739;28;20213;-40
2021/03/05 08:05:56;;;;;;;23.27;20.88;;;7.60;99.90;;;;;;5082126;28;20211;-41
2021/03/05 08:08:29;;;;;;;21.50;19.30;;;7.50;99.90;;;;;;5082905;28;20263;-43
2021/03/05 08:11:01;;;;;;;23.58;19.75;;;7.50;99.90;;;;;;5071516;28;20214;-42
2021/03/05 08:13:47;;;;;;;22.73;20.40;;;7.50;99.90;;;;;;5082231;28;20197;-42
2021/03/05 08:16:39;;;;;;;22.10;19.75;;;7.40;99.90;;;;;;5068516;28;20230;-41
2021/03/05 08:19:54;;;;;;;18.70;16.80;;;7.40;99.90;;;;;;5073201;28;20297;-39
2021/03/05 08:22:26;;;;;;;19.65;17.73;;;7.30;99.90;;;;;;5083444;28;20266;-40
2021/03/05 08:25:23;;;;;;;21.05;17.95;;;7.30;99.90;;;;;;5081505;28;20236;-40
2021/03/05 08:27:53;;;;;;;21.23;17.73;;;7.10;99.90;;;;;;5074304;28;20239;-40
2021/03/05 08:30:43;;;;;;;20.50;17.88;;;7.20;99.90;;;;;;5081011;28;20293;-42
2021/03/05 08:33:28;;;;;;;19.75;17.70;;;7.10;99.90;;;;;;5082475;28;20285;-40
2021/03/05 08:35:58;;;;;;;20.85;18.77;;;7.10;99.90;;;;;;5074762;28;20212;-43
2021/03/05 08:38:37;;;;;;;21.98;18.50;;;7.00;99.90;;;;;;5075885;28;20247;-42
2021/03/05 08:41:24;;;;;;;21.00;18.05;;;6.90;99.90;;;;;;5072537;28;20212;-40
2021/03/05 08:44:08;;;;;;;21.33;18.20;;;6.90;99.90;;;;;;5082640;28;20578;-40
2021/03/05 08:46:38;;;;;;;20.40;18.40;;;6.70;99.90;;;;;;5075401;28;20224;-41
2021/03/05 08:49:09;;;;;;;21.27;19.02;;;6.70;99.90;;;;;;5080876;28;20205;-41
2021/03/05 08:51:44;;;;;;;21.63;19.33;;;6.70;99.90;;;;;;5076396;28;20696;-41
2021/03/05 08:54:15;;;;;;;21.05;18.70;;;6.70;99.90;;;;;;5081027;28;20201;-39
2021/03/05 08:56:54;;;;;;;21.80;19.50;;;6.70;99.90;;;;;;5077623;28;20271;-41
2021/03/05 08:59:24;;;;;;;21.35;18.77;;;6.80;99.90;;;;;;5071605;28;20893;-40
2021/03/05 09:01:55;;;;;;;19.42;17.30;;;6.70;99.90;;;;;;5086564;28;20200;-40
2021/03/05 09:04:25;;;;;;;22.90;20.15;;;6.70;99.90;;;;;;5079688;28;20210;-40
2021/03/05 09:06:56;;;;;;;24.02;21.42;;;6.70;99.90;;;;;;5082791;28;20266;-43
2021/03/05 09:09:28;;;;;;;20.00;17.83;;;6.50;99.90;;;;;;5076195;28;20204;-40
2021/03/05 09:12:21;;;;;;;21.63;18.90;;;6.50;99.90;;;;;;5078466;28;20292;-42
2021/03/05 09:15:02;;;;;;;22.40;19.88;;;6.40;99.90;;;;;;5080975;28;20741;-41
2021/03/05 09:17:32;;;;;;;21.70;17.90;;;6.40;99.90;;;;;;5079285;28;20236;-41
2021/03/05 09:20:02;;;;;;;19.67;17.50;;;6.30;99.90;;;;;;5069160;28;20202;-39
2021/03/05 09:22:32;;;;;;;20.58;17.80;;;6.40;99.90;;;;;;5073708;28;20209;-40
2021/03/05 09:25:09;;;;;;;20.50;18.13;;;6.50;99.90;;;;;;5084309;28;20224;-40
2021/03/05 09:27:42;;;;;;;20.48;18.23;;;6.40;99.90;;;;;;5085413;28;20235;-40
2021/03/05 09:30:18;;;;;;;20.38;18.35;;;6.40;99.90;;;;;;5084352;28;20228;-40
2021/03/05 09:32:50;;;;;;;20.88;18.70;;;6.40;99.90;;;;;;5084209;28;20193;-39
2021/03/05 09:35:25;;;;;;;19.40;17.38;;;6.40;99.90;;;;;;5073665;28;20208;-40
2021/03/05 09:37:55;;;;;;;21.88;17.90;;;6.50;99.90;;;;;;5085423;28;20235;-40
2021/03/05 09:40:28;;;;;;;22.30;17.92;;;6.40;99.90;;;;;;5076162;28;20209;-40
2021/03/05 09:43:00;;;;;;;20.35;16.63;;;6.30;99.90;;;;;;5083189;28;20213;-40
2021/03/05 09:45:37;;;;;;;18.90;16.90;;;6.30;99.90;;;;;;5076185;28;20344;-40
2021/03/05 09:48:09;;;;;;;18.02;16.23;;;6.30;99.90;;;;;;5071935;28;20197;-40
2021/03/05 09:50:40;;;;;;;19.08;15.98;;;6.30;99.90;;;;;;5082556;28;20197;-40
2021/03/05 09:53:25;;;;;;;18.33;16.35;;;6.30;99.90;;;;;;5082887;28;20202;-40
2021/03/05 09:55:57;;;;;;;20.10;16.83;;;6.30;99.90;;;;;;5080436;28;20319;-40
2021/03/05 09:58:28;;;;;;;19.65;16.85;;;6.30;99.90;;;;;;5085105;28;20228;-40
2021/03/05 10:00:59;;;;;;;19.55;17.00;;;6.20;99.90;;;;;;5083529;28;20224;-40
2021/03/05 10:03:29;;;;;;;17.63;15.73;;;6.10;99.90;;;;;;5085385;28;20202;-41
2021/03/05 10:06:00;;;;;;;19.88;17.77;;;6.00;99.90;;;;;;5083431;28;20689;-39
2021/03/05 10:08:31;;;;;;;18.33;16.27;;;6.00;99.90;;;;;;5083948;28;20236;-39
2021/03/05 10:11:04;;;;;;;19.40;15.77;;;6.00;99.90;;;;;;5083692;28;20280;-40
2021/03/05 10:13:52;;;;;;;18.13;16.23;;;5.90;99.90;;;;;;5078483;28;20272;-39
2021/03/05 10:16:29;;;;;;;18.38;16.30;;;6.00;99.90;;;;;;5074184;28;20241;-39
2021/03/05 10:19:04;;;;;;;22.40;16.17;;;5.90;99.90;;;;;;5082678;28;20621;-40
2021/03/05 10:21:34;;;;;;;18.00;15.75;;;5.80;99.90;;;;;;5084981;28;20215;-41
2021/03/05 10:24:09;;;;;;;19.13;15.95;;;5.80;99.90;;;;;;5084938;28;20198;-40
2021/03/05 10:27:10;;;;;;;23.55;16.88;;;5.60;99.90;;;;;;5078970;28;20205;-40
2021/03/05 10:29:39;;;;;;;16.38;14.05;;;5.70;99.90;;;;;;5075919;28;20202;-40
2021/03/05 10:32:21;;;;;;;18.48;16.48;;;5.70;99.90;;;;;;5084814;28;20209;-40
2021/03/05 10:34:53;;;;;;;20.85;15.52;;;5.60;99.90;;;;;;5070189;28;20206;-40
2021/03/05 10:37:23;;;;;;;16.38;14.65;;;5.60;99.90;;;;;;5074615;28;20217;-40
2021/03/05 10:39:54;;;;;;;18.30;15.95;;;5.50;99.90;;;;;;5077822;28;20631;-40
2021/03/05 10:42:25;;;;;;;18.15;16.20;;;5.50;99.90;;;;;;5077771;28;20201;-40
2021/03/05 10:44:56;;;;;;;19.67;16.48;;;5.70;99.90;;;;;;5069472;28;20205;-40
2021/03/05 10:47:27;;;;;;;17.80;15.90;;;5.70;99.90;;;;;;5084006;28;20285;-40
2021/03/05 10:49:58;;;;;;;20.13;17.05;;;5.70;99.90;;;;;;5078053;28;20233;-40
2021/03/05 10:52:28;;;;;;;18.20;16.33;;;5.70;99.90;;;;;;5084008;28;20232;-40
2021/03/05 10:54:58;;;;;;;16.58;14.32;;;5.70;99.90;;;;;;5070720;28;20266;-39
2021/03/05 10:57:28;;;;;;;17.20;15.40;;;5.70;99.90;;;;;;5082773;28;20274;-40
2021/03/05 10:59:59;;;;;;;17.60;15.82;;;5.70;99.90;;;;;;5082820;28;20231;-40
2021/03/05 11:02:31;;;;;;;17.80;15.95;;;5.60;99.90;;;;;;5077318;28;20201;-40
2021/03/05 11:05:02;;;;;;;20.58;16.40;;;5.70;99.90;;;;;;5083854;28;20209;-39
2021/03/05 11:07:32;;;;;;;18.38;15.73;;;5.60;99.90;;;;;;5082541;28;20224;-39
2021/03/05 11:10:02;;;;;;;19.02;16.45;;;5.60;99.90;;;;;;5083866;28;20208;-39
2021/03/05 11:12:32;;;;;;;19.98;16.15;;;5.50;99.90;;;;;;5077948;28;20202;-39
2021/03/05 11:15:04;;;;;;;17.10;15.27;;;5.50;99.90;;;;;;5082885;28;20235;-39
2021/03/05 11:17:34;;;;;;;18.05;16.25;;;5.50;99.90;;;;;;5077317;28;20340;-40
2021/03/05 11:20:06;;;;;;;17.42;15.60;;;5.50;99.90;;;;;;5080005;28;20268;-39
2021/03/05 11:22:36;;;;;;;19.50;17.50;;;5.50;99.90;;;;;;5078382;28;20280;-39
2021/03/05 11:25:07;;;;;;;16.58;14.57;;;5.40;99.90;;;;;;5082941;28;20205;-40
2021/03/05 11:27:37;;;;;;;19.65;16.60;;;5.50;99.90;;;;;;5081359;28;20227;-40
2021/03/05 11:30:09;;;;;;;18.60;15.90;;;5.50;99.90;;;;;;5073069;28;20231;-41
2021/03/05 11:32:39;;;;;;;20.98;17.20;;;5.50;99.90;;;;;;5084117;28;20213;-41
2021/03/05 11:35:10;;;;;;;17.90;15.38;;;5.50;99.90;;;;;;5076816;28;20225;-41
2021/03/05 11:37:40;;;;;;;21.58;16.60;;;5.50;99.90;;;;;;5083566;28;20225;-38
2021/03/05 11:40:11;;;;;;;18.67;15.35;;;5.50;99.90;;;;;;5082979;28;20205;-40
2021/03/05 11:42:41;;;;;;;19.98;15.57;;;5.50;99.90;;;;;;5078342;28;20653;-39
2021/03/05 11:45:14;;;;;;;17.38;15.48;;;5.50;99.90;;;;;;5076802;28;20263;-39
2021/03/05 11:47:44;;;;;;;18.50;15.65;;;5.50;99.90;;;;;;5083296;28;20231;-39
2021/03/05 11:50:15;;;;;;;19.95;16.70;;;5.50;99.90;;;;;;5080097;28;20209;-39
2021/03/05 11:52:45;;;;;;;20.30;17.58;;;5.60;99.90;;;;;;5078635;28;20202;-39
2021/03/05 11:55:15;;;;;;;23.98;18.88;;;5.50;99.90;;;;;;5077673;28;20202;-39
2021/03/05 11:57:45;;;;;;;20.95;17.40;;;5.60;99.90;;;;;;5081160;28;20220;-42
2021/03/05 12:00:18;;;;;;;24.85;18.95;;;5.60;99.90;;;;;;5081644;28;20216;-40
2021/03/05 12:02:48;;;;;;;20.02;17.83;;;5.60;99.90;;;;;;5082837;28;20240;-40
2021/03/05 12:05:18;;;;;;;24.00;19.85;;;5.60;99.90;;;;;;5072790;28;20300;-40
2021/03/05 12:07:48;;;;;;;19.70;17.60;;;5.60;99.90;;;;;;5082913;28;20656;-39
2021/03/05 12:10:18;;;;;;;19.45;17.45;;;5.60;99.90;;;;;;5080878;28;20209;-40
2021/03/05 12:12:48;;;;;;;22.77;18.65;;;5.70;99.90;;;;;;5082581;28;20309;-39
2021/03/05 12:15:20;;;;;;;22.10;18.90;;;5.60;99.90;;;;;;5065616;28;20205;-40
2021/03/05 12:20:41;;;;;;;21.15;18.50;;;5.70;99.90;;;;;;5082182;28;20603;-39
2021/03/05 12:23:11;;;;;;;23.65;20.13;;;5.70;99.90;;;;;;5082980;28;20214;-39
2021/03/05 12:25:41;;;;;;;22.60;19.50;;;5.70;99.90;;;;;;5077288;28;20201;-40
2021/03/05 12:28:11;;;;;;;24.05;21.40;;;5.70;99.90;;;;;;5082650;28;20278;-39
2021/03/05 12:30:42;;;;;;;23.60;20.70;;;5.70;99.90;;;;;;5081401;28;20208;-40
2021/03/05 12:33:12;;;;;;;22.73;20.00;;;5.70;99.90;;;;;;5082687;28;20213;-40
2021/03/05 12:35:43;;;;;;;26.65;21.38;;;5.70;99.90;;;;;;5074674;28;20215;-40
2021/03/05 12:38:13;;;;;;;23.92;20.48;;;5.80;99.90;;;;;;5082681;28;20276;-40
2021/03/05 12:40:43;;;;;;;23.42;20.92;;;5.70;99.90;;;;;;5067517;28;20275;-39
2021/03/05 12:43:13;;;;;;;27.38;22.55;;;5.90;99.90;;;;;;5082203;28;20279;-40
2021/03/05 12:45:45;;;;;;;28.83;23.20;;;5.90;99.90;;;;;;5078231;28;20240;-41
2021/03/05 12:48:16;;;;;;;24.27;21.38;;;5.90;99.90;;;;;;5074392;28;20206;-39
2021/03/05 12:50:46;;;;;;;26.98;23.15;;;5.90;99.90;;;;;;5078572;28;20288;-40
2021/03/05 12:53:16;;;;;;;27.92;22.60;;;5.90;99.90;;;;;;5077368;28;20205;-39
2021/03/05 12:55:46;;;;;;;26.02;22.65;;;5.90;99.90;;;;;;5076502;28;20258;-40
2021/03/05 12:58:17;;;;;;;29.63;24.80;;;6.00;99.90;;;;;;5079162;28;20228;-39
2021/03/05 13:00:48;;;;;;;26.38;22.80;;;5.90;99.90;;;;;;5080325;28;20209;-39
2021/03/05 13:03:19;;;;;;;32.65;25.25;;;5.90;99.90;;;;;;5071256;28;20202;-39
2021/03/05 13:05:49;;;;;;;30.00;26.90;;;6.00;99.90;;;;;;5080988;28;20260;-39
2021/03/05 13:08:20;;;;;;;33.15;29.55;;;5.90;99.90;;;;;;5083233;28;20611;-40
2021/03/05 13:10:50;;;;;;;32.05;28.58;;;6.00;99.90;;;;;;5077405;28;20235;-39